createdAt,value
2022-09-26T00:00:31.457Z,10.20
2022-09-26T00:01:36.135Z,10.20
2022-09-26T00:02:38.267Z,10.20
2022-09-26T00:03:42.713Z,10.30
2022-09-26T00:04:44.597Z,10.30
2022-09-26T00:05:46.452Z,10.30
2022-09-26T00:06:48.833Z,10.30
2022-09-26T00:07:50.731Z,10.30
2022-09-26T00:08:53.838Z,10.30
2022-09-26T00:09:55.783Z,10.30
2022-09-26T00:10:59.576Z,10.30
2022-09-26T00:12:02.147Z,10.30
2022-09-26T00:13:04.150Z,10.30
2022-09-26T00:14:09.655Z,10.30
2022-09-26T00:15:12.110Z,10.40
2022-09-26T00:16:15.456Z,10.30
2022-09-26T00:17:17.371Z,10.30
2022-09-26T00:18:19.351Z,10.40
2022-09-26T00:19:22.190Z,10.40
2022-09-26T00:20:24.110Z,10.40
2022-09-26T00:21:27.483Z,10.40
2022-09-26T00:22:29.614Z,10.40
2022-09-26T00:23:31.569Z,10.40
2022-09-26T00:24:33.472Z,10.40
2022-09-26T00:25:35.382Z,10.40
2022-09-26T00:26:37.961Z,10.40
2022-09-26T00:27:39.917Z,10.40
2022-09-26T00:28:42.817Z,10.40
2022-09-26T00:29:44.691Z,10.40
2022-09-26T00:30:46.915Z,10.40
2022-09-26T00:31:49.313Z,10.40
2022-09-26T00:32:51.170Z,10.40
2022-09-26T00:33:53.440Z,10.40
2022-09-26T00:34:55.294Z,10.40
2022-09-26T00:35:57.185Z,10.40
2022-09-26T00:36:59.163Z,10.40
2022-09-26T00:38:01.000Z,10.40
2022-09-26T00:39:03.122Z,10.40
2022-09-26T00:40:05.478Z,10.40
2022-09-26T00:41:08.301Z,10.40
2022-09-26T00:42:14.523Z,10.40
2022-09-26T00:43:48.961Z,10.40
2022-09-26T00:44:56.806Z,10.40
2022-09-26T00:46:34.599Z,10.30
2022-09-26T00:47:44.900Z,10.30
2022-09-26T00:48:51.786Z,10.30
2022-09-26T00:50:00.410Z,10.20
2022-09-26T00:51:03.246Z,10.20
2022-09-26T00:52:13.823Z,10.20
2022-09-26T00:53:19.857Z,10.30
2022-09-26T00:54:22.342Z,10.20
2022-09-26T00:55:30.316Z,10.20
2022-09-26T00:56:36.196Z,10.20
2022-09-26T00:57:53.496Z,10.20
2022-09-26T00:59:08.913Z,10.20
2022-09-26T01:00:11.940Z,10.30
2022-09-26T01:01:14.795Z,10.20
2022-09-26T01:02:16.911Z,10.20
2022-09-26T01:03:20.527Z,10.20
2022-09-26T01:04:23.426Z,10.20
2022-09-26T01:05:25.840Z,10.30
2022-09-26T01:06:27.845Z,10.20
2022-09-26T01:07:30.267Z,10.20
2022-09-26T01:08:43.933Z,10.20
2022-09-26T01:09:47.737Z,10.20
2022-09-26T01:10:50.516Z,10.20
2022-09-26T01:11:53.757Z,10.20
2022-09-26T01:12:57.041Z,10.10
2022-09-26T01:13:59.444Z,10.10
2022-09-26T01:15:02.063Z,10.10
2022-09-26T01:16:04.068Z,10.00
2022-09-26T01:17:06.175Z,10.00
2022-09-26T01:18:09.118Z,10.00
2022-09-26T01:19:31.200Z,10.00
2022-09-26T01:20:41.829Z,10.00
2022-09-26T01:21:55.949Z,9.90
2022-09-26T01:23:18.998Z,9.90
2022-09-26T01:24:32.866Z,9.90
2022-09-26T01:26:16.909Z,9.90
2022-09-26T01:27:39.586Z,9.90
2022-09-26T01:28:53.274Z,9.90
2022-09-26T01:30:04.721Z,9.90
2022-09-26T01:33:11.613Z,9.90
2022-09-26T01:34:32.798Z,9.90
2022-09-26T01:36:02.288Z,9.90
2022-09-26T01:37:21.222Z,9.90
2022-09-26T01:38:46.281Z,9.90
2022-09-26T01:39:57.887Z,9.90
2022-09-26T01:41:34.248Z,9.90
2022-09-26T01:42:46.148Z,9.90
2022-09-26T01:43:56.722Z,10.00
2022-09-26T01:45:14.770Z,9.90
2022-09-26T01:46:19.698Z,9.90
2022-09-26T01:47:42.209Z,9.90
2022-09-26T01:48:48.501Z,9.90
2022-09-26T01:50:01.229Z,9.90
2022-09-26T01:51:12.607Z,9.90
2022-09-26T01:52:55.794Z,10.00
2022-09-26T01:54:06.581Z,10.00
2022-09-26T01:55:27.091Z,9.90
2022-09-26T01:56:36.442Z,9.90
2022-09-26T01:57:49.118Z,9.90
2022-09-26T01:59:19.620Z,9.90
2022-09-26T02:00:21.637Z,9.90
2022-09-26T02:01:27.928Z,9.90
2022-09-26T02:02:34.122Z,9.90
2022-09-26T02:03:42.459Z,9.90
2022-09-26T02:04:48.054Z,9.90
2022-09-26T02:06:00.592Z,9.90
2022-09-26T02:07:12.744Z,9.90
2022-09-26T02:08:40.725Z,9.90
2022-09-26T02:09:52.331Z,9.90
2022-09-26T02:11:17.407Z,9.80
2022-09-26T02:12:33.067Z,9.80
2022-09-26T02:13:52.100Z,9.80
2022-09-26T02:15:00.210Z,9.80
2022-09-26T02:16:19.567Z,9.70
2022-09-26T02:17:34.157Z,9.70
2022-09-26T02:18:47.565Z,9.70
2022-09-26T02:19:59.479Z,9.70
2022-09-26T02:21:17.167Z,9.70
2022-09-26T02:22:19.517Z,9.70
2022-09-26T02:23:22.204Z,9.60
2022-09-26T02:24:24.642Z,9.60
2022-09-26T02:25:28.510Z,9.60
2022-09-26T02:26:30.406Z,9.60
2022-09-26T02:27:32.286Z,9.60
2022-09-26T02:28:34.348Z,9.60
2022-09-26T02:29:36.332Z,9.60
2022-09-26T02:30:39.478Z,9.60
2022-09-26T02:31:49.334Z,9.50
2022-09-26T02:32:51.288Z,9.50
2022-09-26T02:33:54.180Z,9.50
2022-09-26T02:34:56.816Z,9.50
2022-09-26T02:35:58.958Z,9.50
2022-09-26T02:37:01.388Z,9.50
2022-09-26T02:38:04.646Z,9.50
2022-09-26T02:39:06.782Z,9.50
2022-09-26T02:40:08.739Z,9.40
2022-09-26T02:41:48.401Z,9.50
2022-09-26T02:43:17.227Z,9.40
2022-09-26T02:44:29.202Z,9.30
2022-09-26T02:46:01.617Z,9.30
2022-09-26T02:47:36.391Z,9.30
2022-09-26T02:49:12.696Z,9.20
2022-09-26T02:50:20.098Z,9.20
2022-09-26T02:51:54.470Z,9.10
2022-09-26T02:53:11.445Z,9.10
2022-09-26T02:54:18.978Z,9.10
2022-09-26T02:55:51.981Z,9.10
2022-09-26T02:57:13.506Z,9.00
2022-09-26T02:58:36.631Z,9.00
2022-09-26T02:59:41.198Z,9.00
2022-09-26T03:01:15.719Z,8.90
2022-09-26T03:02:23.638Z,8.90
2022-09-26T03:03:38.224Z,8.90
2022-09-26T03:04:55.180Z,8.90
2022-09-26T03:05:59.419Z,8.90
2022-09-26T03:07:06.373Z,8.80
2022-09-26T03:08:14.179Z,8.80
2022-09-26T03:09:18.826Z,8.80
2022-09-26T03:10:21.082Z,8.80
2022-09-26T03:11:27.194Z,8.80
2022-09-26T03:12:31.723Z,8.80
2022-09-26T03:13:36.888Z,8.80
2022-09-26T03:14:42.302Z,8.80
2022-09-26T03:15:47.339Z,8.80
2022-09-26T03:16:51.273Z,8.80
2022-09-26T03:17:54.958Z,8.80
2022-09-26T03:19:07.993Z,8.80
2022-09-26T03:20:17.074Z,8.70
2022-09-26T03:21:19.046Z,8.70
2022-09-26T03:22:21.090Z,8.70
2022-09-26T03:23:27.439Z,8.70
2022-09-26T03:24:29.390Z,8.70
2022-09-26T03:25:31.554Z,8.70
2022-09-26T03:26:34.458Z,8.70
2022-09-26T03:27:38.512Z,8.70
2022-09-26T03:28:40.285Z,8.70
2022-09-26T03:29:42.075Z,8.70
2022-09-26T03:30:43.911Z,8.70
2022-09-26T03:31:46.271Z,8.70
2022-09-26T03:32:49.033Z,8.70
2022-09-26T03:33:52.138Z,8.70
2022-09-26T03:34:54.264Z,8.70
2022-09-26T03:35:56.001Z,8.70
2022-09-26T03:36:57.750Z,8.70
2022-09-26T03:37:59.435Z,8.70
2022-09-26T03:39:01.169Z,8.70
2022-09-26T03:40:08.669Z,8.70
2022-09-26T03:41:11.059Z,8.70
2022-09-26T03:42:14.248Z,8.70
2022-09-26T03:43:16.092Z,8.70
2022-09-26T03:44:18.018Z,8.60
2022-09-26T03:45:21.186Z,8.60
2022-09-26T03:46:24.367Z,8.60
2022-09-26T03:47:26.754Z,8.60
2022-09-26T03:48:28.549Z,8.60
2022-09-26T03:49:30.464Z,8.70
2022-09-26T03:50:34.006Z,8.70
2022-09-26T03:51:35.992Z,8.60
2022-09-26T03:52:37.723Z,8.70
2022-09-26T03:53:42.750Z,8.70
2022-09-26T03:54:45.134Z,8.70
2022-09-26T03:55:47.021Z,8.70
2022-09-26T03:56:48.756Z,8.70
2022-09-26T03:57:50.602Z,8.70
2022-09-26T03:58:52.395Z,8.70
2022-09-26T03:59:55.183Z,8.70
2022-09-26T04:01:06.445Z,8.70
2022-09-26T04:02:08.579Z,8.70
2022-09-26T04:03:10.422Z,8.70
2022-09-26T04:04:15.399Z,8.60
2022-09-26T04:05:17.332Z,8.60
2022-09-26T04:06:21.225Z,8.60
2022-09-26T04:07:23.223Z,8.60
2022-09-26T04:08:25.093Z,8.60
2022-09-26T04:09:27.321Z,8.70
2022-09-26T04:10:29.366Z,8.70
2022-09-26T04:11:31.070Z,8.70
2022-09-26T04:12:32.780Z,8.70
2022-09-26T04:13:50.568Z,8.70
2022-09-26T04:14:54.945Z,8.70
2022-09-26T04:15:57.861Z,8.70
2022-09-26T04:16:59.588Z,8.70
2022-09-26T04:18:01.318Z,8.60
2022-09-26T04:19:04.108Z,8.70
2022-09-26T04:20:06.279Z,8.70
2022-09-26T04:21:11.019Z,8.70
2022-09-26T04:22:12.877Z,8.70
2022-09-26T04:23:15.769Z,8.70
2022-09-26T04:24:18.431Z,8.70
2022-09-26T04:25:20.314Z,8.70
2022-09-26T04:26:24.286Z,8.70
2022-09-26T04:27:30.233Z,8.70
2022-09-26T04:28:32.981Z,8.70
2022-09-26T04:29:34.905Z,8.70
2022-09-26T04:30:37.381Z,8.70
2022-09-26T04:31:39.459Z,8.70
2022-09-26T04:32:41.595Z,8.70
2022-09-26T04:33:43.371Z,8.70
2022-09-26T04:34:45.150Z,8.70
2022-09-26T04:35:46.949Z,8.70
2022-09-26T04:36:50.310Z,8.70
2022-09-26T04:37:52.125Z,8.70
2022-09-26T04:38:53.844Z,8.70
2022-09-26T04:39:55.802Z,8.80
2022-09-26T04:40:57.517Z,8.70
2022-09-26T04:42:00.867Z,8.80
2022-09-26T04:43:02.666Z,8.80
2022-09-26T04:44:04.399Z,8.80
2022-09-26T04:45:06.569Z,8.90
2022-09-26T04:46:21.257Z,8.90
2022-09-26T04:47:23.948Z,8.90
2022-09-26T04:48:25.904Z,8.90
2022-09-26T04:49:30.004Z,8.90
2022-09-26T04:50:32.066Z,8.90
2022-09-26T04:51:33.728Z,8.80
2022-09-26T04:52:35.530Z,8.80
2022-09-26T04:53:38.695Z,8.80
2022-09-26T04:54:40.533Z,8.80
2022-09-26T04:55:46.912Z,8.70
2022-09-26T04:56:48.752Z,8.80
2022-09-26T04:57:50.883Z,8.80
2022-09-26T04:58:54.689Z,8.80
2022-09-26T04:59:56.379Z,8.80
2022-09-26T05:01:06.588Z,8.80
2022-09-26T05:02:09.092Z,8.90
2022-09-26T05:03:13.072Z,8.90
2022-09-26T05:04:15.373Z,8.90
2022-09-26T05:05:17.049Z,8.90
2022-09-26T05:06:18.865Z,9.00
2022-09-26T05:07:20.656Z,9.00
2022-09-26T05:08:23.651Z,9.10
2022-09-26T05:09:25.620Z,9.10
2022-09-26T05:10:27.362Z,9.10
2022-09-26T05:11:29.221Z,9.10
2022-09-26T05:12:33.417Z,9.20
2022-09-26T05:13:36.710Z,9.20
2022-09-26T05:14:38.955Z,9.20
2022-09-26T05:15:41.613Z,9.30
2022-09-26T05:16:43.407Z,9.30
2022-09-26T05:17:46.456Z,9.30
2022-09-26T05:18:51.915Z,9.30
2022-09-26T05:19:53.706Z,9.40
2022-09-26T05:20:56.920Z,9.40
2022-09-26T05:21:58.576Z,9.40
2022-09-26T05:23:01.405Z,9.50
2022-09-26T05:24:21.911Z,9.50
2022-09-26T05:25:42.159Z,9.50
2022-09-26T05:26:47.406Z,9.50
2022-09-26T05:27:49.310Z,9.50
2022-09-26T05:28:56.700Z,9.50
2022-09-26T05:29:58.512Z,9.50
2022-09-26T05:31:01.459Z,9.50
2022-09-26T05:32:03.229Z,9.50
2022-09-26T05:33:05.440Z,9.60
2022-09-26T05:34:12.217Z,9.60
2022-09-26T05:35:16.276Z,9.60
2022-09-26T05:36:19.616Z,9.60
2022-09-26T05:37:21.781Z,9.60
2022-09-26T05:38:23.567Z,9.60
2022-09-26T05:39:44.591Z,9.70
2022-09-26T05:40:58.481Z,9.70
2022-09-26T05:42:00.386Z,9.70
2022-09-26T05:43:03.381Z,9.70
2022-09-26T05:44:05.161Z,9.70
2022-09-26T05:45:07.635Z,9.70
2022-09-26T05:46:11.428Z,9.70
2022-09-26T05:47:13.282Z,9.80
2022-09-26T05:48:17.315Z,9.80
2022-09-26T05:49:19.080Z,9.80
2022-09-26T05:50:22.334Z,9.80
2022-09-26T05:51:24.512Z,9.90
2022-09-26T05:52:28.743Z,9.90
2022-09-26T05:53:33.699Z,9.90
2022-09-26T05:54:35.512Z,9.90
2022-09-26T05:55:40.263Z,9.90
2022-09-26T05:56:42.108Z,9.90
2022-09-26T05:57:51.503Z,9.90
2022-09-26T05:58:55.154Z,9.90
2022-09-26T05:59:56.994Z,10.00
2022-09-26T06:01:18.698Z,10.00
2022-09-26T06:02:21.128Z,10.00
2022-09-26T06:03:23.066Z,10.00
2022-09-26T06:04:24.920Z,10.00
2022-09-26T06:05:27.164Z,10.00
2022-09-26T06:06:30.045Z,10.00
2022-09-26T06:07:32.878Z,10.10
2022-09-26T06:08:36.488Z,10.10
2022-09-26T06:09:39.161Z,10.20
2022-09-26T06:10:41.003Z,10.20
2022-09-26T06:11:42.664Z,10.30
2022-09-26T06:12:48.811Z,10.30
2022-09-26T06:13:53.061Z,10.40
2022-09-26T06:14:54.761Z,10.40
2022-09-26T06:15:57.564Z,10.40
2022-09-26T06:16:59.285Z,10.50
2022-09-26T06:18:04.515Z,10.60
2022-09-26T06:19:06.386Z,10.60
2022-09-26T06:20:09.111Z,10.70
2022-09-26T06:21:12.200Z,10.70
2022-09-26T06:22:14.071Z,10.80
2022-09-26T06:23:15.789Z,10.80
2022-09-26T06:24:20.740Z,10.80
2022-09-26T06:25:22.828Z,10.80
2022-09-26T06:26:29.065Z,10.80
2022-09-26T06:27:32.962Z,10.80
2022-09-26T06:28:36.230Z,10.90
2022-09-26T06:29:39.280Z,10.90
2022-09-26T06:30:41.190Z,10.90
2022-09-26T06:31:43.355Z,10.90
2022-09-26T06:32:46.492Z,10.90
2022-09-26T06:33:55.312Z,10.90
2022-09-26T06:35:02.937Z,10.90
2022-09-26T06:36:07.093Z,11.00
2022-09-26T06:37:08.803Z,11.00
2022-09-26T06:38:10.744Z,11.00
2022-09-26T06:39:12.862Z,11.00
2022-09-26T06:40:15.070Z,11.00
2022-09-26T06:41:17.513Z,11.00
2022-09-26T06:42:19.248Z,11.00
2022-09-26T06:43:21.289Z,11.00
2022-09-26T06:44:23.939Z,11.10
2022-09-26T06:45:26.691Z,11.10
2022-09-26T06:46:29.052Z,11.10
2022-09-26T06:47:30.902Z,11.10
2022-09-26T06:48:32.717Z,11.00
2022-09-26T06:49:35.357Z,11.10
2022-09-26T06:50:37.025Z,11.10
2022-09-26T06:51:38.773Z,11.10
2022-09-26T06:52:40.990Z,11.10
2022-09-26T06:53:46.061Z,11.00
2022-09-26T06:54:48.040Z,11.00
2022-09-26T06:55:50.080Z,10.90
2022-09-26T06:56:51.763Z,10.90
2022-09-26T06:57:54.237Z,10.90
2022-09-26T06:58:55.964Z,10.90
2022-09-26T06:59:57.660Z,10.90
2022-09-26T07:00:59.752Z,10.90
2022-09-26T07:02:01.850Z,10.90
2022-09-26T07:03:04.462Z,11.00
2022-09-26T07:04:06.378Z,11.00
2022-09-26T07:05:08.486Z,11.00
2022-09-26T07:06:10.325Z,11.00
2022-09-26T07:07:12.328Z,11.00
2022-09-26T07:08:14.478Z,11.10
2022-09-26T07:09:16.783Z,11.10
2022-09-26T07:10:19.906Z,11.10
2022-09-26T07:12:47.173Z,11.10
2022-09-26T07:13:49.195Z,11.10
2022-09-26T07:14:53.789Z,11.10
2022-09-26T07:15:58.599Z,11.20
2022-09-26T07:17:00.305Z,11.20
2022-09-26T07:18:04.107Z,11.20
2022-09-26T07:19:05.823Z,11.30
2022-09-26T07:20:10.241Z,11.30
2022-09-26T07:21:12.039Z,11.40
2022-09-26T07:22:15.585Z,11.50
2022-09-26T07:23:17.437Z,11.50
2022-09-26T07:24:19.229Z,11.50
2022-09-26T07:25:21.220Z,11.60
2022-09-26T07:26:23.076Z,11.60
2022-09-26T07:27:24.945Z,11.70
2022-09-26T07:28:27.870Z,11.70
2022-09-26T07:29:29.852Z,11.70
2022-09-26T07:30:31.667Z,11.80
2022-09-26T07:31:33.661Z,11.80
2022-09-26T07:32:36.436Z,11.90
2022-09-26T07:33:39.673Z,11.90
2022-09-26T07:34:42.936Z,11.90
2022-09-26T07:35:45.296Z,12.00
2022-09-26T07:36:47.658Z,11.90
2022-09-26T07:37:53.068Z,11.90
2022-09-26T07:38:55.132Z,11.90
2022-09-26T07:40:01.284Z,11.90
2022-09-26T07:41:03.681Z,12.00
2022-09-26T07:42:05.846Z,12.00
2022-09-26T07:43:35.871Z,12.00
2022-09-26T07:45:17.138Z,12.10
2022-09-26T07:46:11.359Z,12.10
2022-09-26T07:47:31.818Z,12.10
2022-09-26T07:48:52.554Z,12.10
2022-09-26T07:50:12.945Z,12.20
2022-09-26T07:51:16.325Z,12.20
2022-09-26T07:52:20.807Z,12.20
2022-09-26T07:53:22.492Z,12.30
2022-09-26T07:54:24.412Z,12.20
2022-09-26T07:55:27.908Z,12.30
2022-09-26T07:56:34.039Z,12.30
2022-09-26T07:57:36.137Z,12.30
2022-09-26T07:58:39.980Z,12.40
2022-09-26T07:59:41.962Z,12.40
2022-09-26T08:00:44.943Z,12.40
2022-09-26T08:01:47.145Z,12.50
2022-09-26T08:02:50.942Z,12.50
2022-09-26T08:03:54.582Z,12.60
2022-09-26T08:05:00.915Z,12.70
2022-09-26T08:06:05.180Z,12.60
2022-09-26T08:07:08.670Z,12.60
2022-09-26T08:08:10.710Z,12.60
2022-09-26T08:09:13.360Z,12.70
2022-09-26T08:10:22.137Z,12.70
2022-09-26T08:11:25.109Z,12.70
2022-09-26T08:12:27.758Z,12.80
2022-09-26T08:13:31.951Z,12.80
2022-09-26T08:14:34.066Z,12.80
2022-09-26T08:15:38.456Z,12.70
2022-09-26T08:16:41.810Z,12.70
2022-09-26T08:17:44.038Z,12.80
2022-09-26T08:18:48.100Z,12.80
2022-09-26T08:19:53.061Z,12.80
2022-09-26T08:20:55.317Z,12.90
2022-09-26T08:21:59.226Z,12.80
2022-09-26T08:23:01.492Z,12.80
2022-09-26T08:24:03.489Z,12.90
2022-09-26T08:25:06.969Z,12.90
2022-09-26T08:26:09.280Z,13.00
2022-09-26T08:27:11.220Z,13.00
2022-09-26T08:28:13.605Z,13.10
2022-09-26T08:29:18.333Z,13.20
2022-09-26T08:30:22.335Z,13.40
2022-09-26T08:31:24.665Z,13.50
2022-09-26T08:32:27.554Z,13.60
2022-09-26T08:33:29.915Z,13.60
2022-09-26T08:34:32.313Z,13.70
2022-09-26T08:35:44.336Z,13.80
2022-09-26T08:36:54.273Z,14.00
2022-09-26T08:37:57.278Z,14.10
2022-09-26T08:38:59.747Z,14.10
2022-09-26T08:40:01.860Z,14.20
2022-09-26T08:41:20.253Z,14.20
2022-09-26T08:42:40.735Z,14.20
2022-09-26T08:44:05.927Z,14.30
2022-09-26T08:45:52.541Z,14.30
2022-09-26T08:47:12.286Z,14.30
2022-09-26T08:48:44.968Z,14.30
2022-09-26T08:50:15.368Z,14.30
2022-09-26T08:51:40.767Z,14.40
2022-09-26T08:52:48.592Z,14.40
2022-09-26T08:53:59.982Z,14.40
2022-09-26T08:55:31.516Z,14.40
2022-09-26T08:56:35.987Z,14.40
2022-09-26T08:57:42.245Z,14.30
2022-09-26T08:58:52.533Z,14.20
2022-09-26T08:59:54.891Z,14.20
2022-09-26T09:01:04.430Z,14.20
2022-09-26T09:02:31.914Z,14.20
2022-09-26T09:03:43.737Z,14.20
2022-09-26T09:04:57.849Z,14.20
2022-09-26T09:06:13.604Z,14.20
2022-09-26T09:07:25.979Z,14.20
2022-09-26T09:08:37.607Z,14.20
2022-09-26T09:09:39.663Z,14.20
2022-09-26T09:10:49.007Z,14.20
2022-09-26T09:12:14.011Z,14.20
2022-09-26T09:14:02.921Z,14.30
2022-09-26T09:15:34.081Z,14.30
2022-09-26T09:17:14.941Z,14.30
2022-09-26T09:18:50.610Z,14.40
2022-09-26T09:20:07.843Z,14.40
2022-09-26T09:21:42.733Z,14.40
2022-09-26T09:23:06.606Z,14.30
2022-09-26T09:24:29.744Z,14.30
2022-09-26T09:25:52.160Z,14.30
2022-09-26T09:29:12.708Z,14.40
2022-09-26T09:30:52.047Z,14.50
2022-09-26T09:31:56.224Z,14.50
2022-09-26T09:33:23.045Z,14.60
2022-09-26T09:34:28.697Z,14.70
2022-09-26T09:35:40.319Z,14.70
2022-09-26T09:36:49.866Z,14.70
2022-09-26T09:37:54.796Z,14.70
2022-09-26T09:39:03.066Z,14.80
2022-09-26T09:40:11.996Z,14.80
2022-09-26T09:41:18.950Z,14.90
2022-09-26T09:42:49.659Z,14.90
2022-09-26T09:43:54.957Z,14.90
2022-09-26T09:45:40.042Z,14.90
2022-09-26T09:46:43.309Z,15.00
2022-09-26T09:47:46.254Z,15.00
2022-09-26T09:48:48.954Z,15.10
2022-09-26T09:49:51.847Z,15.10
2022-09-26T09:51:07.959Z,15.10
2022-09-26T09:52:20.234Z,15.20
2022-09-26T09:53:47.839Z,15.20
2022-09-26T09:55:23.824Z,15.40
2022-09-26T09:56:43.954Z,15.40
2022-09-26T09:58:09.869Z,15.30
2022-09-26T09:59:46.417Z,15.30
2022-09-26T10:01:16.336Z,15.20
2022-09-26T10:02:44.495Z,15.20
2022-09-26T10:04:06.191Z,15.10
2022-09-26T10:05:33.782Z,15.20
2022-09-26T10:06:46.039Z,15.30
2022-09-26T10:07:49.937Z,15.30
2022-09-26T10:08:52.073Z,15.40
2022-09-26T10:09:54.224Z,15.40
2022-09-26T10:11:08.645Z,15.40
2022-09-26T10:12:17.075Z,15.40
2022-09-26T10:13:19.367Z,15.40
2022-09-26T10:14:39.105Z,15.50
2022-09-26T10:15:59.177Z,15.60
2022-09-26T10:17:09.761Z,15.60
2022-09-26T10:18:25.305Z,15.60
2022-09-26T10:19:36.635Z,15.60
2022-09-26T10:20:42.565Z,15.60
2022-09-26T10:21:48.696Z,15.60
2022-09-26T10:22:51.354Z,15.70
2022-09-26T10:23:53.643Z,15.70
2022-09-26T10:25:03.508Z,15.80
2022-09-26T10:26:09.596Z,15.90
2022-09-26T10:27:23.992Z,15.90
2022-09-26T10:28:33.595Z,15.90
2022-09-26T10:29:36.960Z,16.00
2022-09-26T10:30:48.745Z,15.90
2022-09-26T10:32:00.444Z,15.90
2022-09-26T10:33:04.117Z,16.00
2022-09-26T10:34:20.893Z,16.10
2022-09-26T10:35:25.966Z,16.20
2022-09-26T10:36:36.678Z,16.20
2022-09-26T10:37:38.781Z,16.20
2022-09-26T10:39:11.253Z,16.20
2022-09-26T10:40:48.662Z,16.20
2022-09-26T10:41:57.798Z,16.30
2022-09-26T10:43:34.783Z,16.40
2022-09-26T10:44:40.237Z,16.60
2022-09-26T10:45:42.106Z,16.70
2022-09-26T10:46:45.468Z,16.80
2022-09-26T10:47:51.460Z,17.10
2022-09-26T10:48:56.044Z,18.30
2022-09-26T10:50:05.967Z,19.80
2022-09-26T10:51:08.419Z,21.20
2022-09-26T10:52:33.097Z,22.10
2022-09-26T10:53:42.136Z,22.90
2022-09-26T10:55:04.358Z,24.20
2022-09-26T10:56:11.718Z,24.90
2022-09-26T10:57:24.477Z,24.80
2022-09-26T10:58:29.928Z,25.30
2022-09-26T10:59:34.736Z,25.70
2022-09-26T11:00:46.748Z,26.20
2022-09-26T11:01:55.999Z,27.00
2022-09-26T11:02:59.368Z,27.60
2022-09-26T11:04:45.133Z,27.60
2022-09-26T11:05:57.684Z,27.50
2022-09-26T11:07:00.001Z,27.40
2022-09-26T11:08:05.631Z,27.10
2022-09-26T11:09:07.648Z,27.20
2022-09-26T11:10:14.112Z,27.00
2022-09-26T11:11:17.526Z,26.40
2022-09-26T11:12:28.265Z,26.30
2022-09-26T11:13:46.557Z,26.70
2022-09-26T11:14:53.236Z,27.00
2022-09-26T11:16:09.628Z,27.40
2022-09-26T11:17:11.842Z,28.10
2022-09-26T11:18:25.325Z,28.50
2022-09-26T11:19:54.876Z,28.50
2022-09-26T11:21:18.272Z,28.70
2022-09-26T11:22:38.361Z,29.40
2022-09-26T11:23:54.298Z,29.50
2022-09-26T11:25:27.299Z,29.60
2022-09-26T11:26:41.464Z,29.60
2022-09-26T11:27:48.174Z,29.30
2022-09-26T11:29:03.960Z,29.70
2022-09-26T11:30:22.826Z,29.90
2022-09-26T11:31:30.226Z,30.50
2022-09-26T11:32:41.245Z,30.60
2022-09-26T11:33:45.137Z,30.20
2022-09-26T11:34:47.174Z,30.00
2022-09-26T11:36:14.877Z,29.80
2022-09-26T11:37:30.190Z,29.50
2022-09-26T11:38:53.451Z,29.20
2022-09-26T11:40:17.089Z,29.60
2022-09-26T11:41:52.450Z,30.30
2022-09-26T11:43:24.832Z,31.10
2022-09-26T11:44:45.434Z,32.60
2022-09-26T11:46:15.580Z,33.80
2022-09-26T11:47:54.654Z,34.50
2022-09-26T11:49:35.034Z,34.50
2022-09-26T11:51:08.281Z,32.60
2022-09-26T11:52:34.048Z,31.50
2022-09-26T11:54:11.249Z,31.30
2022-09-26T11:55:37.286Z,31.50
2022-09-26T11:57:11.666Z,30.60
2022-09-26T11:58:27.468Z,29.50
2022-09-26T12:00:06.477Z,29.50
2022-09-26T12:01:27.490Z,30.20
2022-09-26T12:02:47.472Z,30.70
2022-09-26T12:04:19.743Z,31.20
2022-09-26T12:05:43.287Z,32.30
2022-09-26T12:07:21.757Z,31.10
2022-09-26T12:08:47.329Z,29.50
2022-09-26T12:10:14.470Z,29.10
2022-09-26T12:11:41.755Z,30.00
2022-09-26T12:13:11.154Z,31.40
2022-09-26T12:14:27.921Z,32.50
2022-09-26T12:15:56.391Z,33.00
2022-09-26T12:17:04.657Z,31.90
2022-09-26T12:18:36.248Z,31.20
2022-09-26T12:20:02.417Z,29.90
2022-09-26T12:22:07.691Z,28.90
2022-09-26T12:23:36.454Z,30.20
2022-09-26T12:25:17.908Z,30.20
2022-09-26T12:26:36.972Z,29.60
2022-09-26T12:27:44.824Z,28.50
2022-09-26T12:29:23.931Z,27.60
2022-09-26T12:30:33.563Z,26.80
2022-09-26T12:31:56.974Z,26.00
2022-09-26T12:33:52.169Z,25.80
2022-09-26T12:35:07.670Z,25.80
2022-09-26T12:36:31.611Z,25.70
2022-09-26T12:37:41.192Z,25.50
2022-09-26T12:38:56.395Z,25.10
2022-09-26T12:40:21.860Z,25.10
2022-09-26T12:41:30.294Z,24.90
2022-09-26T12:43:04.833Z,24.30
2022-09-26T12:44:31.271Z,24.10
2022-09-26T12:45:59.280Z,24.20
2022-09-26T12:47:16.176Z,24.10
2022-09-26T12:48:48.052Z,23.90
2022-09-26T12:50:10.070Z,23.10
2022-09-26T12:51:33.505Z,22.60
2022-09-26T12:52:47.921Z,22.60
2022-09-26T12:54:01.853Z,22.40
2022-09-26T12:55:13.283Z,22.10
2022-09-26T12:56:45.525Z,21.60
2022-09-26T12:58:10.458Z,21.20
2022-09-26T12:59:36.444Z,20.70
2022-09-26T13:00:58.434Z,20.30
2022-09-26T13:02:50.297Z,20.60
2022-09-26T13:04:22.973Z,22.30
2022-09-26T13:06:12.560Z,24.70
2022-09-26T13:07:34.937Z,24.10
2022-09-26T13:09:08.178Z,23.10
2022-09-26T13:10:42.748Z,22.50
2022-09-26T13:12:16.995Z,22.20
2022-09-26T13:13:47.042Z,22.70
2022-09-26T13:14:53.369Z,23.90
2022-09-26T13:16:18.632Z,23.30
2022-09-26T13:17:24.922Z,22.10
2022-09-26T13:18:37.484Z,21.50
2022-09-26T13:19:51.826Z,21.20
2022-09-26T13:21:03.243Z,20.90
2022-09-26T13:22:18.408Z,20.70
2022-09-26T13:23:53.741Z,20.40
2022-09-26T13:25:08.121Z,20.20
2022-09-26T13:26:14.691Z,19.90
2022-09-26T13:27:26.902Z,19.70
2022-09-26T13:29:06.337Z,19.60
2022-09-26T13:30:17.198Z,19.50
2022-09-26T13:31:27.310Z,19.40
2022-09-26T13:32:47.699Z,19.30
2022-09-26T13:33:56.779Z,19.20
2022-09-26T13:35:15.341Z,19.10
2022-09-26T13:36:19.103Z,19.00
2022-09-26T13:37:36.775Z,18.80
2022-09-26T13:39:03.431Z,18.70
2022-09-26T13:40:36.303Z,18.70
2022-09-26T13:42:03.904Z,18.60
2022-09-26T13:43:20.345Z,18.40
2022-09-26T13:44:33.925Z,18.30
2022-09-26T13:46:03.631Z,18.20
2022-09-26T13:47:15.656Z,18.10
2022-09-26T13:48:34.880Z,18.00
2022-09-26T13:49:52.107Z,17.90
2022-09-26T13:51:01.495Z,17.80
2022-09-26T13:52:24.619Z,17.90
2022-09-26T13:54:03.102Z,17.90
2022-09-26T13:55:20.175Z,17.90
2022-09-26T13:56:34.842Z,17.90
2022-09-26T13:58:19.830Z,17.80
2022-09-26T13:59:32.319Z,17.80
2022-09-26T14:00:39.100Z,17.80
2022-09-26T14:02:18.445Z,17.80
2022-09-26T14:03:20.464Z,17.80
2022-09-26T14:04:38.034Z,17.80
2022-09-26T14:05:43.730Z,17.80
2022-09-26T14:07:26.634Z,17.80
2022-09-26T14:08:50.342Z,17.80
2022-09-26T14:10:01.699Z,17.80
2022-09-26T14:11:35.344Z,17.80
2022-09-26T14:13:17.996Z,17.80
2022-09-26T14:14:21.471Z,17.70
2022-09-26T14:15:47.628Z,17.70
2022-09-26T14:16:59.624Z,17.70
2022-09-26T14:18:15.479Z,17.80
2022-09-26T14:19:39.246Z,17.80
2022-09-26T14:21:00.069Z,17.80
2022-09-26T14:22:26.650Z,17.70
2022-09-26T14:23:42.407Z,17.70
2022-09-26T14:24:45.577Z,17.70
2022-09-26T14:25:47.776Z,17.70
2022-09-26T14:27:12.708Z,17.70
2022-09-26T14:28:19.976Z,17.70
2022-09-26T14:29:30.019Z,17.80
2022-09-26T14:30:33.553Z,17.70
2022-09-26T14:31:39.324Z,17.70
2022-09-26T14:32:46.323Z,17.70
2022-09-26T14:33:49.870Z,17.60
2022-09-26T14:34:57.656Z,17.60
2022-09-26T14:36:30.960Z,17.50
2022-09-26T14:37:42.698Z,17.50
2022-09-26T14:38:49.188Z,17.40
2022-09-26T14:40:05.107Z,17.30
2022-09-26T14:41:18.556Z,17.20
2022-09-26T14:42:27.711Z,17.20
2022-09-26T14:43:31.350Z,17.10
2022-09-26T14:44:37.231Z,17.10
2022-09-26T14:45:39.597Z,17.00
2022-09-26T14:46:42.103Z,17.00
2022-09-26T14:47:49.517Z,17.00
2022-09-26T14:49:01.917Z,16.90
2022-09-26T14:50:11.660Z,16.90
2022-09-26T14:51:16.635Z,16.80
2022-09-26T14:52:20.636Z,16.80
2022-09-26T14:53:41.268Z,16.70
2022-09-26T14:54:43.454Z,16.70
2022-09-26T14:55:59.185Z,16.70
2022-09-26T14:57:21.118Z,16.60
2022-09-26T14:58:38.502Z,16.50
2022-09-26T14:59:42.229Z,16.40
2022-09-26T15:00:49.819Z,16.40
2022-09-26T15:02:17.807Z,16.30
2022-09-26T15:03:20.258Z,16.30
2022-09-26T15:04:28.142Z,16.30
2022-09-26T15:05:31.850Z,16.30
2022-09-26T15:06:41.709Z,16.20
2022-09-26T15:07:49.167Z,16.20
2022-09-26T15:08:52.000Z,16.20
2022-09-26T15:10:02.448Z,16.10
2022-09-26T15:11:05.224Z,16.10
2022-09-26T15:12:30.540Z,16.00
2022-09-26T15:13:42.887Z,16.00
2022-09-26T15:14:51.825Z,15.90
2022-09-26T15:16:19.310Z,15.80
2022-09-26T15:17:30.016Z,15.80
2022-09-26T15:18:37.576Z,15.70
2022-09-26T15:19:49.784Z,15.70
2022-09-26T15:21:01.792Z,15.60
2022-09-26T15:22:13.976Z,15.60
2022-09-26T15:23:30.592Z,15.50